Time;durP1;ratioP1;P1;durP2;ratioP2;P2;SDS_P1;SDS_P2;PMS_P1;PMS_P2;Temp;Humidity;BMP_temperature;BMP_pressure;BME280_temperature;BME280_humidity;BME280_pressure;Samples;Min_cycle;Max_cycle;Signal;HPM_P1;HPM_P2
2023/06/21 00:00:11;;;;;;;9.10;7.80;;;;;;;18.65;100.00;100764.84;106135;1257;60847;-89
2023/06/21 00:02:41;;;;;;;8.10;7.40;;;;;;;18.63;100.00;100769.06;106128;1251;60062;-87
2023/06/21 00:05:08;;;;;;;8.00;7.30;;;;;;;18.62;100.00;100770.60;105913;1256;73441;-89
2023/06/21 00:07:38;;;;;;;8.80;8.00;;;;;;;18.60;100.00;100771.36;106039;1257;63649;-85
2023/06/21 00:10:07;;;;;;;8.70;7.10;;;;;;;18.57;100.00;100773.11;106168;1251;71476;-85
2023/06/21 00:12:35;;;;;;;8.60;7.80;;;;;;;18.56;100.00;100769.17;105895;1255;61760;-84
2023/06/21 00:15:03;;;;;;;7.60;6.90;;;;;;;18.55;100.00;100777.27;106043;1251;59541;-86
2023/06/21 00:17:31;;;;;;;7.50;6.80;;;;;;;18.54;100.00;100776.45;106011;1257;71796;-85
2023/06/21 00:19:58;;;;;;;7.10;6.50;;;;;;;18.53;100.00;100774.41;106125;1251;62507;-85
2023/06/21 00:22:28;;;;;;;8.60;7.30;;;;;;;18.52;100.00;100771.55;105979;1257;72721;-85
2023/06/21 00:24:57;;;;;;;7.20;6.50;;;;;;;18.50;100.00;100770.52;106138;1251;61671;-83
2023/06/21 00:27:25;;;;;;;7.40;6.50;;;;;;;18.48;100.00;100760.38;106153;1257;62645;-83
2023/06/21 00:29:54;;;;;;;7.50;6.90;;;;;;;18.48;100.00;100761.65;106044;1255;75550;-86
2023/06/21 00:32:22;;;;;;;7.70;7.00;;;;;;;18.47;100.00;100762.27;106105;1250;63674;-87
2023/06/21 00:34:49;;;;;;;11.00;9.00;;;;;;;18.45;100.00;100761.19;105912;1251;72867;-88
2023/06/21 00:37:17;;;;;;;18.60;14.60;;;;;;;18.43;100.00;100763.48;106147;1255;60403;-86
2023/06/21 00:39:44;;;;;;;17.40;15.50;;;;;;;18.41;100.00;100764.67;106048;1255;60041;-86
2023/06/21 00:42:12;;;;;;;14.80;13.20;;;;;;;18.42;100.00;100778.63;106003;1251;73270;-87
2023/06/21 00:44:40;;;;;;;14.00;10.90;;;;;;;18.40;100.00;100782.67;106089;1256;66022;-85
2023/06/21 00:47:07;;;;;;;19.00;13.10;;;;;;;18.40;100.00;100781.98;105961;1251;73127;-87
2023/06/21 00:49:35;;;;;;;30.30;16.30;;;;;;;18.39;100.00;100776.92;106090;1256;61654;-85
2023/06/21 00:52:05;;;;;;;29.30;18.80;;;;;;;18.38;100.00;100776.30;105906;1257;59733;-86
2023/06/21 00:54:36;;;;;;;24.10;18.10;;;;;;;18.39;100.00;100769.19;105941;1257;72795;-88
2023/06/21 00:57:04;;;;;;;29.40;19.90;;;;;;;18.38;100.00;100760.02;105905;1251;62314;-88
2023/06/21 00:59:32;;;;;;;22.80;18.00;;;;;;;18.37;100.00;100759.42;105934;1251;72387;-87
2023/06/21 01:02:03;;;;;;;23.60;17.60;;;;;;;18.36;100.00;100760.71;105907;1256;61716;-85
2023/06/21 01:04:33;;;;;;;23.70;17.70;;;;;;;18.37;100.00;100755.31;108693;1250;59410;-84
2023/06/21 01:07:16;;;;;;;24.70;18.90;;;;;;;18.38;100.00;100752.77;106912;1251;71464;-84
2023/06/21 01:10:03;;;;;;;23.50;18.10;;;;;;;18.37;100.00;100759.20;106306;1256;63638;-83
2023/06/21 01:12:51;;;;;;;27.10;19.90;;;;;;;18.37;100.00;100757.00;106063;1251;71381;-86
2023/06/21 01:15:26;;;;;;;27.00;19.60;;;;;;;18.36;100.00;100755.98;106164;1253;61606;-87
2023/06/21 01:17:57;;;;;;;21.10;18.50;;;;;;;18.35;100.00;100745.59;106134;1252;59997;-84
2023/06/21 01:20:29;;;;;;;25.80;17.70;;;;;;;18.35;100.00;100730.98;107785;1249;73155;-85
2023/06/21 01:23:22;;;;;;;25.10;18.70;;;;;;;18.35;100.00;100721.38;107316;1251;62365;-85
2023/06/21 01:26:12;;;;;;;20.20;17.60;;;;;;;18.36;100.00;100727.84;106441;1251;72712;-85
2023/06/21 01:29:05;;;;;;;22.90;18.10;;;;;;;18.37;100.00;100732.55;105881;1256;62214;-85
2023/06/21 01:31:32;;;;;;;22.60;16.20;;;;;;;18.39;100.00;100732.15;107065;1251;59996;-82
2023/06/21 01:34:00;;;;;;;21.70;16.90;;;;;;;18.41;100.00;100724.02;106620;1256;71645;-84
2023/06/21 01:36:27;;;;;;;22.20;16.40;;;;;;;18.42;100.00;100711.48;106004;1256;64264;-83
2023/06/21 01:38:59;;;;;;;22.10;16.40;;;;;;;18.43;100.00;100694.04;105941;1254;73238;-84
2023/06/21 01:41:27;;;;;;;21.60;14.60;;;;;;;18.41;100.00;100679.42;106030;1256;60692;-84
2023/06/21 01:43:57;;;;;;;16.30;13.70;;;;;;;18.37;100.00;100674.93;105949;1257;59503;-84
2023/06/21 01:46:25;;;;;;;23.40;16.80;;;;;;;18.36;100.00;100671.50;105868;1256;73287;-89
2023/06/21 01:48:53;;;;;;;27.30;17.30;;;;;;;18.37;100.00;100666.33;105907;1251;61391;-85
2023/06/21 01:51:21;;;;;;;23.60;17.30;;;;;;;18.37;100.00;100659.53;106097;1252;72569;-86
2023/06/21 01:53:48;;;;;;;26.60;20.70;;;;;;;18.39;100.00;100658.69;105893;1251;62474;-85
2023/06/21 01:56:17;;;;;;;22.60;17.10;;;;;;;18.40;100.00;100662.33;105934;1256;59596;-84
2023/06/21 01:58:46;;;;;;;22.60;18.20;;;;;;;18.40;100.00;100672.20;105959;1256;72975;-86
2023/06/21 02:01:14;;;;;;;22.50;18.80;;;;;;;18.42;100.00;100677.55;105886;1253;63454;-88
2023/06/21 02:03:48;;;;;;;27.90;19.00;;;;;;;18.43;100.00;100683.59;106025;1254;71599;-85
2023/06/21 02:06:16;;;;;;;25.20;19.60;;;;;;;18.45;100.00;100689.98;106645;1254;62357;-84
2023/06/21 02:08:44;;;;;;;22.00;17.50;;;;;;;18.47;100.00;100694.27;106156;1251;59946;-87
2023/06/21 02:11:13;;;;;;;19.50;16.30;;;;;;;18.47;100.00;100694.62;106164;1254;73549;-87
2023/06/21 02:13:40;;;;;;;25.80;19.30;;;;;;;18.46;100.00;100691.52;106014;1250;62761;-87
2023/06/21 02:16:08;;;;;;;23.20;18.40;;;;;;;18.45;100.00;100693.54;106068;1257;71533;-86
2023/06/21 02:18:35;;;;;;;22.30;17.40;;;;;;;18.44;100.00;100693.95;106088;1255;61667;-90
2023/06/21 02:21:05;;;;;;;19.70;17.20;;;;;;;18.43;100.00;100700.61;106110;1257;60297;-88
2023/06/21 02:23:34;;;;;;;19.80;16.70;;;;;;;18.41;100.00;100707.71;105779;1250;71794;-85
2023/06/21 02:26:02;;;;;;;21.40;19.10;;;;;;;18.38;100.00;100706.38;106019;1251;62396;-85
2023/06/21 02:28:30;;;;;;;22.50;18.80;;;;;;;18.38;100.00;100709.59;106051;1257;72635;-87
2023/06/21 02:30:57;;;;;;;22.50;18.50;;;;;;;18.38;100.00;100704.20;106079;1255;62108;-86
2023/06/21 02:33:25;;;;;;;25.10;18.90;;;;;;;18.39;100.00;100704.52;105908;1257;60588;-88
2023/06/21 02:35:53;;;;;;;28.90;19.30;;;;;;;18.40;100.00;100698.55;105889;1256;74307;-87
2023/06/21 02:38:20;;;;;;;25.40;20.70;;;;;;;18.43;100.00;100699.05;106082;1255;63888;-88
2023/06/21 02:40:49;;;;;;;24.10;20.50;;;;;;;18.46;100.00;100699.13;106302;1257;72746;-81
2023/06/21 02:43:17;;;;;;;29.70;21.40;;;;;;;18.49;100.00;100698.31;106142;1251;60484;-83
2023/06/21 02:45:45;;;;;;;28.30;21.80;;;;;;;18.53;100.00;100697.10;105911;1249;60585;-85
2023/06/21 02:48:13;;;;;;;27.50;22.00;;;;;;;18.55;100.00;100689.61;106084;1254;72538;-87
2023/06/21 02:50:41;;;;;;;27.00;22.50;;;;;;;18.59;100.00;100683.10;105971;1251;62412;-86
2023/06/21 02:53:09;;;;;;;21.30;18.50;;;;;;;18.62;100.00;100682.02;106041;1256;72332;-84
2023/06/21 02:55:38;;;;;;;24.90;21.80;;;;;;;18.64;100.00;100673.40;106091;1257;60565;-84
2023/06/21 02:58:05;;;;;;;31.20;24.60;;;;;;;18.67;100.00;100669.94;105846;1252;61529;-88
2023/06/21 03:00:33;;;;;;;32.20;23.90;;;;;;;18.70;100.00;100668.05;106050;1257;73874;-85
2023/06/21 03:03:02;;;;;;;28.20;22.90;;;;;;;18.74;100.00;100668.52;106164;1250;65149;-85
2023/06/21 03:05:30;;;;;;;27.70;22.70;;;;;;;18.79;100.00;100661.17;106153;1251;71199;-87
2023/06/21 03:08:00;;;;;;;24.80;21.20;;;;;;;18.83;100.00;100655.30;106683;1250;61808;-84
2023/06/21 03:10:29;;;;;;;26.10;22.40;;;;;;;18.88;100.00;100653.49;109111;1250;60575;-83
2023/06/21 03:12:57;;;;;;;32.40;24.60;;;;;;;18.92;100.00;100644.02;108857;1255;72592;-83
2023/06/21 03:15:26;;;;;;;29.00;22.50;;;;;;;18.98;100.00;100647.38;106570;1250;63963;-87
2023/06/21 03:17:54;;;;;;;28.30;24.00;;;;;;;19.05;100.00;100646.33;106165;1254;71138;-85
2023/06/21 03:20:24;;;;;;;27.30;22.90;;;;;;;19.12;100.00;100646.55;105990;1251;60688;-87
2023/06/21 03:22:53;;;;;;;28.70;22.40;;;;;;;19.19;100.00;100652.74;106166;1254;60436;-87
2023/06/21 03:25:20;;;;;;;27.70;22.30;;;;;;;19.27;100.00;100652.96;106128;1251;72145;-88
2023/06/21 03:27:50;;;;;;;33.10;23.90;;;;;;;19.35;100.00;100653.55;105982;1251;62403;-87
2023/06/21 03:30:18;;;;;;;31.30;24.50;;;;;;;19.45;100.00;100655.47;105981;1251;72712;-85
2023/06/21 03:32:46;;;;;;;27.20;21.80;;;;;;;19.54;100.00;100658.99;106114;1251;60476;-86
2023/06/21 03:35:18;;;;;;;26.90;22.00;;;;;;;19.63;100.00;100659.89;105925;1256;60431;-85
2023/06/21 03:37:50;;;;;;;30.20;23.80;;;;;;;19.73;100.00;100662.89;105992;1257;72905;-87
2023/06/21 03:40:24;;;;;;;29.10;21.50;;;;;;;19.82;100.00;100666.23;105963;1250;62554;-88
2023/06/21 03:42:53;;;;;;;34.80;22.80;;;;;;;19.91;100.00;100668.75;106048;1251;71414;-90
2023/06/21 03:45:22;;;;;;;26.10;21.70;;;;;;;19.99;100.00;100667.77;106085;1251;61813;-88
2023/06/21 03:47:53;;;;;;;26.80;22.70;;;;;;;20.08;100.00;100673.07;106013;1251;60422;-88
2023/06/21 03:50:21;;;;;;;29.60;21.70;;;;;;;20.16;100.00;100671.95;105949;1255;72553;-86
2023/06/21 03:52:49;;;;;;;24.20;20.10;;;;;;;20.24;100.00;100678.17;105893;1254;62829;-88
2023/06/21 03:55:19;;;;;;;24.70;19.50;;;;;;;20.32;100.00;100679.91;105931;1257;72261;-87
2023/06/21 03:57:48;;;;;;;24.50;18.60;;;;;;;20.40;100.00;100681.80;105945;1254;61865;-88
2023/06/21 04:00:16;;;;;;;22.90;17.90;;;;;;;20.48;100.00;100681.70;106472;1253;60351;-87
2023/06/21 04:02:48;;;;;;;25.60;17.70;;;;;;;20.57;100.00;100687.23;106060;1257;73929;-87
2023/06/21 04:05:16;;;;;;;23.40;17.70;;;;;;;20.66;100.00;100690.92;106153;1251;62862;-91
2023/06/21 04:07:43;;;;;;;23.80;16.90;;;;;;;20.73;100.00;100696.06;106066;1251;74110;-88
2023/06/21 04:10:12;;;;;;;21.30;15.20;;;;;;;20.80;100.00;100697.81;105968;1250;64096;-88
2023/06/21 04:12:40;;;;;;;21.30;16.00;;;;;;;20.86;100.00;100700.22;106062;1256;60373;-86
2023/06/21 04:15:11;;;;;;;18.50;15.30;;;;;;;20.96;100.00;100705.06;106077;1249;73871;-88
2023/06/21 04:17:43;;;;;;;23.10;15.70;;;;;;;21.09;100.00;100708.74;106024;1250;62402;-90
2023/06/21 04:20:13;;;;;;;26.70;17.20;;;;;;;21.22;100.00;100715.77;106516;1251;72929;-86
2023/06/21 04:22:41;;;;;;;22.00;17.90;;;;;;;21.31;100.00;100716.05;107530;1251;60481;-87
2023/06/21 04:25:09;;;;;;;24.50;18.50;;;;;;;21.40;100.00;100716.41;105962;1251;60456;-86
2023/06/21 04:27:40;;;;;;;25.30;18.50;;;;;;;21.51;100.00;100720.73;107144;1250;73977;-85
2023/06/21 04:30:09;;;;;;;21.70;18.10;;;;;;;21.68;100.00;100713.29;106455;1251;62474;-88
2023/06/21 04:32:44;;;;;;;22.30;18.30;;;;;;;21.93;100.00;100716.87;106196;1257;71400;-90
2023/06/21 04:35:16;;;;;;;24.20;17.40;;;;;;;22.28;100.00;100726.63;105952;1251;60847;-87
2023/06/21 04:37:45;;;;;;;18.50;15.20;;;;;;;22.61;100.00;100729.20;105951;1256;61447;-88
2023/06/21 04:40:15;;;;;;;28.40;17.80;;;;;;;22.86;100.00;100734.41;106142;1251;72834;-87
2023/06/21 04:42:45;;;;;;;18.70;16.50;;;;;;;23.01;100.00;100739.90;107092;1249;63969;-87
2023/06/21 04:45:15;;;;;;;23.70;18.30;;;;;;;23.06;100.00;100741.83;106867;1251;71368;-85
2023/06/21 04:47:46;;;;;;;18.90;16.90;;;;;;;23.05;100.00;100744.15;106258;1251;60424;-91
2023/06/21 04:50:15;;;;;;;27.20;19.50;;;;;;;23.00;100.00;100743.48;106012;1253;60402;-92
2023/06/21 04:52:49;;;;;;;28.20;18.50;;;;;;;22.95;100.00;100743.23;106044;1254;73826;-87
2023/06/21 04:55:18;;;;;;;24.20;18.90;;;;;;;22.91;100.00;100745.27;106048;1251;64426;-87
2023/06/21 04:57:47;;;;;;;21.50;19.00;;;;;;;22.84;100.00;100745.59;106100;1251;72639;-89
2023/06/21 05:00:18;;;;;;;28.10;18.70;;;;;;;22.76;100.00;100742.63;105774;1251;61999;-89
2023/06/21 05:02:46;;;;;;;28.90;18.00;;;;;;;22.73;100.00;100742.12;105998;1257;60427;-89
2023/06/21 05:05:15;;;;;;;24.30;19.90;;;;;;;22.68;100.00;100747.81;106046;1256;73932;-89
2023/06/21 05:07:43;;;;;;;24.00;18.80;;;;;;;22.63;100.00;100749.76;106124;1257;63575;-88
2023/06/21 05:10:10;;;;;;;24.10;17.90;;;;;;;22.60;100.00;100755.11;106063;1251;72782;-87
2023/06/21 05:12:38;;;;;;;24.80;17.90;;;;;;;22.59;100.00;100753.29;106003;1251;60633;-89
2023/06/21 05:15:06;;;;;;;25.00;18.90;;;;;;;22.61;100.00;100755.23;106026;1254;60418;-89
2023/06/21 05:17:34;;;;;;;24.80;18.70;;;;;;;22.59;100.00;100758.08;106034;1252;73892;-88
2023/06/21 05:20:04;;;;;;;25.20;18.80;;;;;;;22.60;100.00;100759.05;106196;1255;62350;-87
2023/06/21 05:22:34;;;;;;;24.90;19.20;;;;;;;22.62;100.00;100762.23;105955;1251;71888;-89
2023/06/21 05:25:04;;;;;;;25.60;18.40;;;;;;;22.66;100.00;100767.10;106063;1251;60942;-87
2023/06/21 05:27:32;;;;;;;26.00;18.20;;;;;;;22.67;100.00;100774.35;106053;1255;60466;-88
2023/06/21 05:29:59;;;;;;;24.90;19.30;;;;;;;22.67;100.00;100775.02;105952;1254;73996;-87
2023/06/21 05:32:28;;;;;;;26.10;19.30;;;;;;;22.65;100.00;100776.64;106003;1254;63537;-88
2023/06/21 05:34:56;;;;;;;26.90;20.60;;;;;;;22.64;100.00;100772.44;106074;1251;73419;-90
2023/06/21 05:37:23;;;;;;;23.10;19.70;;;;;;;22.66;100.00;100768.70;106317;1251;61925;-88
2023/06/21 05:39:51;;;;;;;27.40;20.10;;;;;;;22.71;100.00;100769.07;106856;1251;60539;-85
2023/06/21 05:42:18;;;;;;;21.10;18.70;;;;;;;22.74;100.00;100773.05;106326;1255;73815;-86
2023/06/21 05:44:46;;;;;;;23.10;18.20;;;;;;;22.76;100.00;100772.04;106279;1250;62610;-86
2023/06/21 05:47:14;;;;;;;24.50;17.70;;;;;;;22.81;100.00;100771.91;106464;1253;71646;-88
2023/06/21 05:49:42;;;;;;;22.80;16.60;;;;;;;22.88;100.00;100771.06;106038;1251;61723;-85
2023/06/21 05:52:10;;;;;;;19.30;16.80;;;;;;;22.98;100.00;100776.05;106152;1250;60537;-87
2023/06/21 05:54:41;;;;;;;20.00;16.60;;;;;;;23.08;100.00;100774.07;105967;1256;76001;-88
2023/06/21 05:57:09;;;;;;;14.70;13.00;;;;;;;23.17;100.00;100776.33;106270;1255;63502;-88
2023/06/21 05:59:37;;;;;;;15.40;12.90;;;;;;;23.23;100.00;100780.20;106539;1250;72828;-86
2023/06/21 06:02:05;;;;;;;14.20;12.60;;;;;;;23.24;100.00;100779.99;106097;1251;60510;-89
2023/06/21 06:04:33;;;;;;;13.90;12.40;;;;;;;23.26;100.00;100777.82;106169;1251;60321;-91
2023/06/21 06:07:01;;;;;;;14.10;12.70;;;;;;;23.30;100.00;100776.60;105952;1251;74019;-91
2023/06/21 06:09:29;;;;;;;13.50;11.10;;;;;;;23.40;100.00;100775.92;106301;1256;62395;-88
2023/06/21 06:11:59;;;;;;;13.20;11.90;;;;;;;23.50;100.00;100779.25;106148;1254;71433;-90
2023/06/21 06:14:27;;;;;;;12.50;11.30;;;;;;;23.66;100.00;100780.86;105947;1256;61788;-89
2023/06/21 06:16:55;;;;;;;12.00;10.80;;;;;;;23.87;100.00;100783.27;106658;1251;60456;-86
2023/06/21 06:19:22;;;;;;;11.70;10.60;;;;;;;24.18;100.00;100784.23;109752;1249;73868;-88
2023/06/21 06:21:50;;;;;;;10.50;9.50;;;;;;;24.61;100.00;100790.81;109690;1249;63641;-86
2023/06/21 06:24:18;;;;;;;10.90;8.60;;;;;;;25.13;100.00;100786.89;109727;1250;72668;-86
2023/06/21 06:26:46;;;;;;;9.50;7.60;;;;;;;25.62;100.00;100789.11;109698;1250;60433;-87
2023/06/21 06:29:13;;;;;;;8.70;7.90;;;;;;;26.11;100.00;100787.91;109770;1250;58804;-89
2023/06/21 06:31:41;;;;;;;8.90;8.00;;;;;;;26.64;100.00;100789.20;109727;1250;74664;-88
2023/06/21 06:34:09;;;;;;;9.60;6.90;;;;;;;27.18;100.00;100783.77;109718;1249;63803;-88
2023/06/21 06:36:37;;;;;;;8.00;7.20;;;;;;;27.74;100.00;100783.58;109859;1254;73220;-89
2023/06/21 06:39:06;;;;;;;7.90;7.30;;;;;;;28.27;100.00;100781.07;109775;1250;62841;-88
2023/06/21 06:41:35;;;;;;;7.40;6.80;;;;;;;28.73;99.56;100782.29;109697;1250;59262;-87
2023/06/21 06:44:04;;;;;;;7.30;6.60;;;;;;;29.13;96.10;100787.77;109665;1250;73928;-89
2023/06/21 06:46:35;;;;;;;6.70;5.90;;;;;;;29.55;91.80;100786.88;109683;1250;62320;-90
2023/06/21 06:49:07;;;;;;;6.60;6.10;;;;;;;29.98;89.83;100791.14;109743;1250;72378;-89
2023/06/21 06:51:35;;;;;;;7.00;6.00;;;;;;;30.25;84.93;100789.30;109652;1251;58843;-87
2023/06/21 06:54:06;;;;;;;7.10;6.40;;;;;;;30.34;81.27;100794.66;109740;1250;60113;-87
2023/06/21 06:56:33;;;;;;;6.60;5.80;;;;;;;30.45;78.87;100792.55;109670;1250;73927;-90
2023/06/21 06:59:01;;;;;;;5.60;5.10;;;;;;;30.53;75.66;100793.15;109761;1250;63728;-88
2023/06/21 07:01:29;;;;;;;6.20;5.60;;;;;;;30.74;72.95;100787.77;109709;1250;74897;-90
2023/06/21 07:03:56;;;;;;;5.90;5.50;;;;;;;31.01;70.94;100789.15;109673;1251;58813;-87
2023/06/21 07:06:25;;;;;;;8.10;7.30;;;;;;;31.31;70.18;100787.04;109801;1250;58771;-88
2023/06/21 07:08:52;;;;;;;5.90;5.40;;;;;;;31.57;66.39;100786.45;109810;1252;73020;-87
2023/06/21 07:11:20;;;;;;;5.90;5.50;;;;;;;31.74;64.52;100785.97;109523;1253;63834;-87
2023/06/21 07:13:47;;;;;;;5.70;5.20;;;;;;;31.90;66.28;100785.27;109381;1254;73743;-88
2023/06/21 07:16:15;;;;;;;5.90;5.40;;;;;;;32.14;67.27;100788.77;109437;1254;60227;-89
2023/06/21 07:18:43;;;;;;;5.90;5.30;;;;;;;32.30;62.41;100789.57;109578;1252;58884;-89
2023/06/21 07:21:10;;;;;;;6.30;5.80;;;;;;;32.47;63.57;100787.83;109622;1254;74032;-86
2023/06/21 07:23:38;;;;;;;6.00;5.30;;;;;;;32.71;61.78;100789.54;109592;1253;64175;-86
2023/06/21 07:26:06;;;;;;;5.70;5.20;;;;;;;32.88;58.41;100787.59;109496;1254;71088;-89
2023/06/21 07:28:34;;;;;;;5.30;4.90;;;;;;;32.88;55.54;100790.13;109569;1252;58882;-88
2023/06/21 07:31:03;;;;;;;5.80;5.20;;;;;;;32.81;57.38;100789.65;109580;1252;58897;-87
2023/06/21 07:33:30;;;;;;;6.20;5.60;;;;;;;32.69;56.70;100788.86;109470;1253;72800;-85
2023/06/21 07:35:58;;;;;;;6.60;5.30;;;;;;;32.49;53.64;100787.71;109544;1253;63713;-86
2023/06/21 07:38:28;;;;;;;5.30;4.90;;;;;;;32.29;54.38;100791.17;109436;1253;72499;-86
2023/06/21 07:40:56;;;;;;;5.00;4.60;;;;;;;32.22;54.85;100790.87;109460;1254;60105;-86
2023/06/21 07:43:23;;;;;;;5.40;4.90;;;;;;;32.23;56.39;100792.86;109568;1252;59255;-86
2023/06/21 07:45:51;;;;;;;5.30;4.90;;;;;;;32.24;56.74;100791.80;109389;1252;73259;-90
2023/06/21 07:48:39;;;;;;;5.70;5.20;;;;;;;32.16;56.18;100790.45;109503;1252;63648;-86
2023/06/21 07:51:06;;;;;;;5.70;4.70;;;;;;;31.99;56.50;100789.51;109592;1253;72660;-87
2023/06/21 07:53:34;;;;;;;5.70;4.90;;;;;;;31.87;57.10;100790.58;109411;1252;60188;-87
2023/06/21 07:56:02;;;;;;;6.80;5.10;;;;;;;31.75;56.55;100791.98;109604;1253;58744;-88
2023/06/21 07:58:29;;;;;;;5.70;5.30;;;;;;;31.65;59.58;100793.69;109511;1253;73948;-87
2023/06/21 08:00:57;;;;;;;82.20;75.80;;;;;;;31.62;58.59;100796.73;109543;1252;62482;-89
2023/06/21 08:03:25;;;;;;;5.10;4.70;;;;;;;31.50;59.10;100800.56;109478;1254;72660;-88
2023/06/21 08:05:52;;;;;;;6.70;4.80;;;;;;;31.41;61.74;100801.02;109540;1254;60517;-87
2023/06/21 08:08:20;;;;;;;5.20;4.80;;;;;;;31.49;61.98;100800.77;109442;1253;58790;-88
2023/06/21 08:10:47;;;;;;;5.30;4.90;;;;;;;31.62;59.69;100804.16;109598;1252;73114;-87
2023/06/21 08:13:18;;;;;;;5.30;4.90;;;;;;;31.60;56.32;100807.30;109656;1252;62473;-89
2023/06/21 08:15:46;;;;;;;5.70;5.20;;;;;;;31.50;57.28;100810.34;109574;1254;71365;-84
2023/06/21 08:18:13;;;;;;;5.10;4.70;;;;;;;31.36;57.86;100812.71;109527;1253;60373;-89
2023/06/21 08:20:41;;;;;;;5.30;4.90;;;;;;;31.26;60.68;100815.34;109533;1257;61223;-86
2023/06/21 08:23:09;;;;;;;6.90;5.90;;;;;;;31.30;61.06;100811.66;109518;1254;73754;-86
2023/06/21 08:25:36;;;;;;;5.80;5.20;;;;;;;31.34;59.56;100813.63;109496;1253;62461;-89
2023/06/21 08:28:05;;;;;;;5.50;5.00;;;;;;;31.40;56.63;100812.19;109477;1258;71421;-87
2023/06/21 08:30:33;;;;;;;5.90;5.20;;;;;;;31.41;56.86;100813.42;109479;1253;58838;-87
2023/06/21 08:33:00;;;;;;;7.30;5.80;;;;;;;31.35;56.85;100820.06;109543;1252;58865;-86
2023/06/21 08:35:30;;;;;;;5.10;4.70;;;;;;;31.25;56.27;100819.25;109510;1253;72763;-84
2023/06/21 08:37:58;;;;;;;5.50;5.00;;;;;;;31.14;54.70;100814.15;109695;1253;65897;-85
2023/06/21 08:40:37;;;;;;;6.90;6.00;;;;;;;31.17;54.03;100816.20;109526;1254;73781;-87
2023/06/21 08:43:05;;;;;;;5.80;4.70;;;;;;;31.33;55.05;100813.16;109545;1252;60090;-86
2023/06/21 08:45:33;;;;;;;6.90;5.20;;;;;;;31.61;54.54;100813.84;109693;1253;58759;-84
2023/06/21 08:48:01;;;;;;;6.00;5.00;;;;;;;31.88;51.85;100810.38;109581;1252;72760;-83
2023/06/21 08:52:48;;;;;;;5.80;5.00;;;;;;;32.33;50.50;100808.96;105816;1293;612550;-87
2023/06/21 08:55:43;;;;;;;5.30;4.70;;;;;;;32.58;50.00;100815.55;108416;1266;58885;-88
2023/06/21 08:58:15;;;;;;;5.70;5.30;;;;;;;32.91;48.51;100812.81;108681;1266;59048;-87
2023/06/21 09:00:50;;;;;;;5.40;4.90;;;;;;;33.23;47.96;100812.73;108791;1257;71118;-87
2023/06/21 09:03:42;;;;;;;6.00;5.30;;;;;;;33.68;47.45;100814.93;108904;1258;62733;-88
2023/06/21 09:06:18;;;;;;;5.30;4.90;;;;;;;33.93;45.02;100814.20;108596;1255;583711;-87
2023/06/21 09:08:46;;;;;;;5.90;5.40;;;;;;;34.05;44.51;100814.36;108915;1257;59084;-86
2023/06/21 09:11:13;;;;;;;5.10;4.70;;;;;;;34.07;44.28;100815.23;109121;1258;59027;-86
2023/06/21 09:13:40;;;;;;;5.00;4.70;;;;;;;34.00;43.65;100814.49;108884;1256;71009;-87
2023/06/21 09:16:08;;;;;;;5.60;5.10;;;;;;;33.85;44.51;100812.73;108981;1257;62360;-84
2023/06/21 09:18:36;;;;;;;5.80;5.20;;;;;;;33.75;44.54;100814.66;108970;1257;72806;-86
2023/06/21 09:21:03;;;;;;;5.40;5.00;;;;;;;33.61;44.04;100819.25;108737;1257;58970;-86
2023/06/21 09:23:30;;;;;;;5.50;5.10;;;;;;;33.42;44.96;100818.13;108450;1258;60804;-84
2023/06/21 09:25:57;;;;;;;6.20;5.70;;;;;;;33.22;45.71;100816.72;108518;1257;71763;-86
2023/06/21 09:28:23;;;;;;;5.80;5.40;;;;;;;33.08;48.16;100812.16;108537;1260;62360;-85
2023/06/21 09:30:50;;;;;;;6.40;5.80;;;;;;;32.99;50.44;100812.25;108007;1258;71919;-87
2023/06/21 09:33:17;;;;;;;6.10;5.60;;;;;;;32.91;50.11;100812.16;106767;1258;59736;-88
2023/06/21 09:35:45;;;;;;;6.20;5.60;;;;;;;32.79;51.02;100815.30;105569;1257;60124;-88
2023/06/21 09:38:24;;;;;;;6.90;6.10;;;;;;;32.63;51.88;100814.55;106432;1258;73042;-85
2023/06/21 10:03:48;;;;;;;4.90;4.50;;;;;;;31.04;62.05;100803.58;105619;1259;62483;-85
2023/06/21 10:10:11;;;;;;;7.20;6.60;;;;;;;31.25;59.61;100812.16;105677;1261;59718;-88
2023/06/21 10:12:50;;;;;;;6.50;6.00;;;;;;;31.39;58.65;100812.85;105573;1259;60225;-86
2023/06/21 10:15:21;;;;;;;5.60;4.80;;;;;;;31.46;56.99;100814.89;105606;1258;72866;-87
2023/06/21 10:17:48;;;;;;;5.70;5.10;;;;;;;31.55;57.52;100813.13;105706;1257;62773;-84
2023/06/21 10:22:51;;;;;;;6.40;5.80;;;;;;;31.86;50.47;100812.08;102811;1291;599919;-89
2023/06/21 10:25:19;;;;;;;6.30;5.50;;;;;;;32.06;51.24;100811.62;104931;1273;60063;-88
2023/06/21 10:27:48;;;;;;;5.60;5.20;;;;;;;32.30;52.25;100811.55;105725;1259;60953;-88
2023/06/21 10:30:19;;;;;;;4.90;4.50;;;;;;;32.41;50.27;100813.59;105512;1254;72319;-89
2023/06/21 10:32:49;;;;;;;5.50;5.00;;;;;;;32.48;49.28;100816.41;105785;1259;64608;-88
2023/06/21 10:35:19;;;;;;;5.80;5.30;;;;;;;32.50;49.32;100817.89;104897;1254;1002368;-84
2023/06/21 10:37:52;;;;;;;5.90;5.40;;;;;;;32.51;48.69;100814.12;105834;1251;59246;-88
2023/06/21 10:40:21;;;;;;;5.10;4.80;;;;;;;32.58;50.05;100815.62;105972;1253;60009;-86
2023/06/21 10:42:48;;;;;;;5.50;5.10;;;;;;;32.68;48.99;100809.19;105917;1257;72829;-84
2023/06/21 10:45:16;;;;;;;5.80;5.10;;;;;;;32.81;46.65;100805.14;105856;1251;62931;-86
2023/06/21 10:47:47;;;;;;;5.10;4.70;;;;;;;32.94;45.41;100802.62;106060;1251;74665;-85
2023/06/21 10:50:15;;;;;;;4.20;3.90;;;;;;;33.04;42.18;100793.58;106112;1252;59635;-85
2023/06/21 10:52:43;;;;;;;4.60;4.30;;;;;;;33.14;41.93;100790.71;106077;1257;59544;-85
2023/06/21 10:55:13;;;;;;;5.50;5.00;;;;;;;33.27;42.57;100786.81;106077;1257;72157;-85
2023/06/21 10:57:40;;;;;;;4.40;4.00;;;;;;;33.37;43.34;100780.52;109637;1251;62667;-84
2023/06/21 11:00:08;;;;;;;4.90;4.50;;;;;;;33.44;44.59;100775.16;109600;1251;72863;-85
2023/06/21 11:02:36;;;;;;;4.30;4.00;;;;;;;33.54;42.90;100772.27;109693;1251;58874;-89
2023/06/21 11:05:23;;;;;;;4.70;4.30;;;;;;;33.68;40.24;100769.90;109728;1251;60056;-85
2023/06/21 11:08:04;;;;;;;5.10;4.60;;;;;;;33.82;39.25;100770.61;109717;1251;73031;-86
2023/06/21 11:10:49;;;;;;;4.80;4.30;;;;;;;33.84;37.51;100768.60;109656;1251;62424;-85
